sensor_id;sensor_type;location;lat;lon;timestamp;pressure;altitude;pressure_sealevel;temperature;humidity
10852;BME280;5479;52.046;6.314;2023-05-23T00:00:16;101617.16;;;15.75;100.00
10852;BME280;5479;52.046;6.314;2023-05-23T00:02:44;101612.56;;;15.77;100.00
10852;BME280;5479;52.046;6.314;2023-05-23T00:05:12;101610.09;;;15.74;100.00
10852;BME280;5479;52.046;6.314;2023-05-23T00:07:46;101615.13;;;15.79;100.00
10852;BME280;5479;52.046;6.314;2023-05-23T00:10:14;101608.19;;;15.76;100.00
10852;BME280;5479;52.046;6.314;2023-05-23T00:12:44;101611.63;;;15.78;100.00
10852;BME280;5479;52.046;6.314;2023-05-23T00:15:16;101612.09;;;15.58;100.00
10852;BME280;5479;52.046;6.314;2023-05-23T00:17:44;101612.75;;;15.61;100.00
10852;BME280;5479;52.046;6.314;2023-05-23T00:20:19;101616.91;;;15.65;100.00
10852;BME280;5479;52.046;6.314;2023-05-23T00:22:48;101616.78;;;15.54;100.00
10852;BME280;5479;52.046;6.314;2023-05-23T00:25:16;101627.25;;;15.57;100.00
10852;BME280;5479;52.046;6.314;2023-05-23T00:27:49;101620.25;;;15.82;100.00
10852;BME280;5479;52.046;6.314;2023-05-23T00:30:20;101611.50;;;15.67;100.00
10852;BME280;5479;52.046;6.314;2023-05-23T00:32:49;101617.47;;;15.70;100.00
10852;BME280;5479;52.046;6.314;2023-05-23T00:35:23;101617.03;;;15.64;100.00
10852;BME280;5479;52.046;6.314;2023-05-23T00:37:58;101622.69;;;15.59;100.00
10852;BME280;5479;52.046;6.314;2023-05-23T00:40:27;101607.81;;;15.55;100.00
10852;BME280;5479;52.046;6.314;2023-05-23T00:43:03;101619.78;;;15.62;100.00
10852;BME280;5479;52.046;6.314;2023-05-23T00:45:34;101625.09;;;15.50;100.00
10852;BME280;5479;52.046;6.314;2023-05-23T00:48:05;101619.78;;;15.62;100.00
10852;BME280;5479;52.046;6.314;2023-05-23T00:50:37;101626.31;;;15.58;100.00
10852;BME280;5479;52.046;6.314;2023-05-23T00:53:05;101636.53;;;15.52;100.00
10852;BME280;5479;52.046;6.314;2023-05-23T00:55:33;101633.66;;;15.55;100.00
10852;BME280;5479;52.046;6.314;2023-05-23T00:58:04;101635.81;;;15.62;100.00
10852;BME280;5479;52.046;6.314;2023-05-23T01:00:37;101633.03;;;15.51;100.00
10852;BME280;5479;52.046;6.314;2023-05-23T01:03:36;101635.59;;;15.53;100.00
10852;BME280;5479;52.046;6.314;2023-05-23T01:06:05;101647.13;;;15.53;100.00
10852;BME280;5479;52.046;6.314;2023-05-23T01:08:43;101638.13;;;15.54;100.00
10852;BME280;5479;52.046;6.314;2023-05-23T01:11:20;101647.34;;;15.36;100.00
10852;BME280;5479;52.046;6.314;2023-05-23T01:13:58;101645.69;;;15.07;100.00
10852;BME280;5479;52.046;6.314;2023-05-23T01:16:34;101665.72;;;15.14;100.00
10852;BME280;5479;52.046;6.314;2023-05-23T01:19:12;101650.28;;;15.05;100.00
10852;BME280;5479;52.046;6.314;2023-05-23T01:21:52;101660.03;;;15.06;100.00
10852;BME280;5479;52.046;6.314;2023-05-23T01:24:35;101654.59;;;14.93;100.00
10852;BME280;5479;52.046;6.314;2023-05-23T01:27:16;101658.69;;;14.85;100.00
10852;BME280;5479;52.046;6.314;2023-05-23T01:29:56;101674.13;;;14.80;100.00
10852;BME280;5479;52.046;6.314;2023-05-23T01:32:26;101659.47;;;14.73;100.00
10852;BME280;5479;52.046;6.314;2023-05-23T01:34:58;101664.88;;;14.85;100.00
10852;BME280;5479;52.046;6.314;2023-05-23T01:37:28;101669.59;;;14.82;100.00
10852;BME280;5479;52.046;6.314;2023-05-23T01:39:56;101652.97;;;14.91;100.00
10852;BME280;5479;52.046;6.314;2023-05-23T01:42:31;101660.78;;;14.80;100.00
10852;BME280;5479;52.046;6.314;2023-05-23T01:45:06;101661.66;;;14.94;100.00
10852;BME280;5479;52.046;6.314;2023-05-23T01:47:40;101669.59;;;14.82;100.00
10852;BME280;5479;52.046;6.314;2023-05-23T01:50:12;101670.72;;;14.78;100.00
10852;BME280;5479;52.046;6.314;2023-05-23T01:52:41;101671.66;;;14.77;100.00
10852;BME280;5479;52.046;6.314;2023-05-23T01:55:16;101677.28;;;14.86;100.00
10852;BME280;5479;52.046;6.314;2023-05-23T01:57:52;101683.84;;;14.81;100.00
10852;BME280;5479;52.046;6.314;2023-05-23T02:00:34;101681.94;;;14.83;100.00
10852;BME280;5479;52.046;6.314;2023-05-23T02:03:10;101679.66;;;14.91;100.00
10852;BME280;5479;52.046;6.314;2023-05-23T02:05:40;101688.63;;;14.90;100.00
10852;BME280;5479;52.046;6.314;2023-05-23T02:08:08;101690.91;;;14.82;100.00
10852;BME280;5479;52.046;6.314;2023-05-23T02:10:40;101686.72;;;14.92;100.00
10852;BME280;5479;52.046;6.314;2023-05-23T02:13:12;101679.66;;;14.91;100.00
10852;BME280;5479;52.046;6.314;2023-05-23T02:15:44;101684.22;;;14.89;100.00
10852;BME280;5479;52.046;6.314;2023-05-23T02:18:12;101695.75;;;14.89;100.00
10852;BME280;5479;52.046;6.314;2023-05-23T02:20:41;101693.97;;;14.90;100.00
10852;BME280;5479;52.046;6.314;2023-05-23T02:23:12;101684.97;;;15.05;100.00
10852;BME280;5479;52.046;6.314;2023-05-23T02:25:44;101698.78;;;14.97;100.00
10852;BME280;5479;52.046;6.314;2023-05-23T02:28:17;101695.28;;;14.97;100.00
10852;BME280;5479;52.046;6.314;2023-05-23T02:30:48;101698.78;;;14.97;100.00
10852;BME280;5479;52.046;6.314;2023-05-23T02:33:20;101698.25;;;14.92;100.00
10852;BME280;5479;52.046;6.314;2023-05-23T02:35:48;101703.38;;;14.81;100.00
10852;BME280;5479;52.046;6.314;2023-05-23T02:38:27;101706.59;;;14.72;100.00
10852;BME280;5479;52.046;6.314;2023-05-23T02:41:04;101708.91;;;14.78;100.00
10852;BME280;5479;52.046;6.314;2023-05-23T02:43:35;101708.03;;;14.78;100.00
10852;BME280;5479;52.046;6.314;2023-05-23T02:46:14;101705.94;;;14.69;100.00
10852;BME280;5479;52.046;6.314;2023-05-23T02:48:49;101709.56;;;14.68;100.00
10852;BME280;5479;52.046;6.314;2023-05-23T02:51:21;101720.59;;;14.62;100.00
10852;BME280;5479;52.046;6.314;2023-05-23T02:53:52;101717.72;;;14.50;100.00
10852;BME280;5479;52.046;6.314;2023-05-23T02:56:22;101721.06;;;14.40;100.00
10852;BME280;5479;52.046;6.314;2023-05-23T02:58:53;101716.75;;;14.37;100.00
10852;BME280;5479;52.046;6.314;2023-05-23T03:01:24;101715.00;;;14.52;100.00
10852;BME280;5479;52.046;6.314;2023-05-23T03:03:54;101719.53;;;14.50;100.00
10852;BME280;5479;52.046;6.314;2023-05-23T03:06:30;101725.53;;;14.39;100.00
10852;BME280;5479;52.046;6.314;2023-05-23T03:09:03;101728.00;;;14.42;100.00
10852;BME280;5479;52.046;6.314;2023-05-23T03:11:37;101725.72;;;14.50;100.00
10852;BME280;5479;52.046;6.314;2023-05-23T03:14:09;101719.47;;;14.52;100.00
10852;BME280;5479;52.046;6.314;2023-05-23T03:16:39;101725.53;;;14.39;100.00
10852;BME280;5479;52.046;6.314;2023-05-23T03:19:10;101726.88;;;14.46;100.00
10852;BME280;5479;52.046;6.314;2023-05-23T03:21:38;101721.44;;;14.48;100.00
10852;BME280;5479;52.046;6.314;2023-05-23T03:24:07;101723.06;;;14.50;100.00
10852;BME280;5479;52.046;6.314;2023-05-23T03:26:35;101730.00;;;14.39;100.00
10852;BME280;5479;52.046;6.314;2023-05-23T03:29:13;101725.34;;;14.42;100.00
10852;BME280;5479;52.046;6.314;2023-05-23T03:31:46;101722.88;;;14.54;100.00
10852;BME280;5479;52.046;6.314;2023-05-23T03:34:14;101720.97;;;14.56;100.00
10852;BME280;5479;52.046;6.314;2023-05-23T03:36:43;101735.44;;;14.52;100.00
10852;BME280;5479;52.046;6.314;2023-05-23T03:39:25;101726.59;;;14.51;100.00
10852;BME280;5479;52.046;6.314;2023-05-23T03:41:56;101732.03;;;14.49;100.00
10852;BME280;5479;52.046;6.314;2023-05-23T03:44:27;101728.78;;;14.59;100.00
10852;BME280;5479;52.046;6.314;2023-05-23T03:47:16;101736.38;;;14.50;100.00
10852;BME280;5479;52.046;6.314;2023-05-23T03:49:47;101728.69;;;14.46;100.00
10852;BME280;5479;52.046;6.314;2023-05-23T03:52:17;101736.19;;;14.39;100.00
10852;BME280;5479;52.046;6.314;2023-05-23T03:54:47;101740.31;;;14.29;100.00
10852;BME280;5479;52.046;6.314;2023-05-23T03:57:16;101737.75;;;14.28;100.00
10852;BME280;5479;52.046;6.314;2023-05-23T03:59:47;101744.25;;;14.08;100.00
10852;BME280;5479;52.046;6.314;2023-05-23T04:02:23;101749.13;;;14.16;100.00
10852;BME280;5479;52.046;6.314;2023-05-23T04:05:02;101760.81;;;14.13;100.00
10852;BME280;5479;52.046;6.314;2023-05-23T04:07:37;101750.44;;;14.09;100.00
10852;BME280;5479;52.046;6.314;2023-05-23T04:10:08;101755.31;;;14.16;100.00
10852;BME280;5479;52.046;6.314;2023-05-23T04:12:38;101760.19;;;14.24;100.00
10852;BME280;5479;52.046;6.314;2023-05-23T04:15:22;101756.88;;;14.20;100.00
10852;BME280;5479;52.046;6.314;2023-05-23T04:17:57;101760.13;;;14.25;100.00
10852;BME280;5479;52.046;6.314;2023-05-23T04:20:30;101751.22;;;14.11;100.00
10852;BME280;5479;52.046;6.314;2023-05-23T04:22:58;101771.31;;;14.16;100.00
10852;BME280;5479;52.046;6.314;2023-05-23T04:25:32;101770.44;;;14.16;100.00
10852;BME280;5479;52.046;6.314;2023-05-23T04:28:03;101775.06;;;14.28;100.00
10852;BME280;5479;52.046;6.314;2023-05-23T04:30:44;101777.72;;;14.28;100.00
10852;BME280;5479;52.046;6.314;2023-05-23T04:33:21;101778.63;;;14.42;100.00
10852;BME280;5479;52.046;6.314;2023-05-23T04:35:55;101784.34;;;14.36;100.00
10852;BME280;5479;52.046;6.314;2023-05-23T04:38:40;101784.44;;;14.35;100.00
10852;BME280;5479;52.046;6.314;2023-05-23T04:41:11;101789.69;;;14.36;100.00
10852;BME280;5479;52.046;6.314;2023-05-23T04:44:01;101791.72;;;14.31;100.00
10852;BME280;5479;52.046;6.314;2023-05-23T04:46:30;101797.06;;;14.31;100.00
10852;BME280;5479;52.046;6.314;2023-05-23T04:49:01;101796.19;;;14.31;100.00
10852;BME280;5479;52.046;6.314;2023-05-23T04:51:30;101791.31;;;14.39;100.00
10852;BME280;5479;52.046;6.314;2023-05-23T04:53:59;101799.94;;;14.42;100.00
10852;BME280;5479;52.046;6.314;2023-05-23T04:56:38;101803.19;;;14.47;100.00
10852;BME280;5479;52.046;6.314;2023-05-23T04:59:07;101806.06;;;14.44;100.00
10852;BME280;5479;52.046;6.314;2023-05-23T05:01:36;101805.38;;;14.41;100.00
10852;BME280;5479;52.046;6.314;2023-05-23T05:04:14;101808.22;;;14.38;100.00
10852;BME280;5479;52.046;6.314;2023-05-23T05:06:45;101812.63;;;14.39;100.00
10852;BME280;5479;52.046;6.314;2023-05-23T05:09:20;101826.25;;;14.48;100.00
10852;BME280;5479;52.046;6.314;2023-05-23T05:11:51;101815.47;;;14.36;100.00
10852;BME280;5479;52.046;6.314;2023-05-23T05:14:19;101829.22;;;14.28;100.00
10852;BME280;5479;52.046;6.314;2023-05-23T05:17:03;101837.47;;;14.08;100.00
10852;BME280;5479;52.046;6.314;2023-05-23T05:19:35;101842.81;;;13.93;100.00
10852;BME280;5479;52.046;6.314;2023-05-23T05:22:03;101841.81;;;13.79;100.00
10852;BME280;5479;52.046;6.314;2023-05-23T05:24:33;101845.22;;;13.66;100.00
10852;BME280;5479;52.046;6.314;2023-05-23T05:27:01;101853.50;;;13.77;100.00
10852;BME280;5479;52.046;6.314;2023-05-23T05:29:36;101862.94;;;13.67;100.00
10852;BME280;5479;52.046;6.314;2023-05-23T05:32:04;101859.56;;;13.63;100.00
10852;BME280;5479;52.046;6.314;2023-05-23T05:34:37;101875.97;;;13.56;100.00
10852;BME280;5479;52.046;6.314;2023-05-23T05:37:05;101867.88;;;13.57;100.00
10852;BME280;5479;52.046;6.314;2023-05-23T05:39:33;101863.44;;;13.58;100.00
10852;BME280;5479;52.046;6.314;2023-05-23T05:42:07;101876.44;;;13.47;100.00
10852;BME280;5479;52.046;6.314;2023-05-23T05:44:38;101877.63;;;13.41;100.00
10852;BME280;5479;52.046;6.314;2023-05-23T05:47:09;101873.19;;;13.42;100.00
10852;BME280;5479;52.046;6.314;2023-05-23T05:49:38;101879.69;;;13.36;100.00
10852;BME280;5479;52.046;6.314;2023-05-23T05:52:07;101879.44;;;13.41;100.00
10852;BME280;5479;52.046;6.314;2023-05-23T05:54:41;101889.50;;;13.51;100.00
10852;BME280;5479;52.046;6.314;2023-05-23T05:57:09;101887.41;;;13.41;100.00
10852;BME280;5479;52.046;6.314;2023-05-23T05:59:38;101888.66;;;13.51;100.00
10852;BME280;5479;52.046;6.314;2023-05-23T06:02:06;101893.25;;;13.32;100.00
10852;BME280;5479;52.046;6.314;2023-05-23T06:04:34;101900.13;;;13.36;100.00
10852;BME280;5479;52.046;6.314;2023-05-23T06:07:08;101907.00;;;13.40;100.00
10852;BME280;5479;52.046;6.314;2023-05-23T06:09:36;101907.22;;;13.35;100.00
10852;BME280;5479;52.046;6.314;2023-05-23T06:12:05;101909.56;;;13.41;100.00
10852;BME280;5479;52.046;6.314;2023-05-23T06:14:34;101917.81;;;13.37;100.00
10852;BME280;5479;52.046;6.314;2023-05-23T06:17:02;101908.41;;;13.29;100.00
10852;BME280;5479;52.046;6.314;2023-05-23T06:19:30;101909.16;;;13.16;100.00
10852;BME280;5479;52.046;6.314;2023-05-23T06:21:59;101918.84;;;13.17;100.00
10852;BME280;5479;52.046;6.314;2023-05-23T06:24:30;101924.09;;;13.18;100.00
10852;BME280;5479;52.046;6.314;2023-05-23T06:27:07;101924.63;;;13.25;100.00
10852;BME280;5479;52.046;6.314;2023-05-23T06:29:35;101928.56;;;13.18;100.00
10852;BME280;5479;52.046;6.314;2023-05-23T06:32:05;101920.31;;;13.22;100.00
10852;BME280;5479;52.046;6.314;2023-05-23T06:34:33;101930.16;;;13.03;100.00
10852;BME280;5479;52.046;6.314;2023-05-23T06:37:01;101919.69;;;13.00;100.00
10852;BME280;5479;52.046;6.314;2023-05-23T06:39:31;101938.69;;;12.93;100.00
10852;BME280;5479;52.046;6.314;2023-05-23T06:42:02;101937.22;;;13.04;100.00
10852;BME280;5479;52.046;6.314;2023-05-23T06:44:38;101945.31;;;12.84;100.00
10852;BME280;5479;52.046;6.314;2023-05-23T06:47:23;101944.69;;;12.79;100.00
10852;BME280;5479;52.046;6.314;2023-05-23T06:49:51;101949.41;;;12.74;100.00
10852;BME280;5479;52.046;6.314;2023-05-23T06:52:19;101953.53;;;12.80;100.00
10852;BME280;5479;52.046;6.314;2023-05-23T06:54:49;101959.59;;;12.83;100.00
10852;BME280;5479;52.046;6.314;2023-05-23T06:57:20;101965.91;;;12.81;100.00
10852;BME280;5479;52.046;6.314;2023-05-23T06:59:48;101958.63;;;12.84;100.00
10852;BME280;5479;52.046;6.314;2023-05-23T07:02:16;101964.28;;;12.78;100.00
10852;BME280;5479;52.046;6.314;2023-05-23T07:04:48;101965.34;;;12.74;100.00
10852;BME280;5479;52.046;6.314;2023-05-23T07:07:16;101964.72;;;12.69;100.00
10852;BME280;5479;52.046;6.314;2023-05-23T07:09:44;101967.78;;;12.79;100.00
10852;BME280;5479;52.046;6.314;2023-05-23T07:12:14;101967.06;;;12.92;100.00
10852;BME280;5479;52.046;6.314;2023-05-23T07:14:46;101969.28;;;13.01;100.00
10852;BME280;5479;52.046;6.314;2023-05-23T07:17:17;101971.06;;;12.84;100.00
10852;BME280;5479;52.046;6.314;2023-05-23T07:19:46;101973.25;;;12.76;100.00
10852;BME280;5479;52.046;6.314;2023-05-23T07:22:14;101974.81;;;12.80;100.00
10852;BME280;5479;52.046;6.314;2023-05-23T07:24:42;101987.63;;;12.71;100.00
10852;BME280;5479;52.046;6.314;2023-05-23T07:27:11;101992.38;;;12.65;100.00
10852;BME280;5479;52.046;6.314;2023-05-23T07:29:44;101990.91;;;12.77;100.00
10852;BME280;5479;52.046;6.314;2023-05-23T07:32:17;101992.50;;;12.81;100.00
10852;BME280;5479;52.046;6.314;2023-05-23T07:34:45;101988.09;;;12.80;100.00
10852;BME280;5479;52.046;6.314;2023-05-23T07:37:14;101994.63;;;12.91;100.00
10852;BME280;5479;52.046;6.314;2023-05-23T07:39:44;102002.41;;;12.77;100.00
10852;BME280;5479;52.046;6.314;2023-05-23T07:42:11;102001.88;;;12.70;100.00
10852;BME280;5479;52.046;6.314;2023-05-23T07:44:40;102012.88;;;12.80;100.00
10852;BME280;5479;52.046;6.314;2023-05-23T07:47:09;102021.09;;;12.76;100.00
10852;BME280;5479;52.046;6.314;2023-05-23T07:49:39;102022.56;;;12.64;100.00
10852;BME280;5479;52.046;6.314;2023-05-23T07:52:08;102024.59;;;12.76;100.00
10852;BME280;5479;52.046;6.314;2023-05-23T07:54:41;102026.81;;;12.85;100.00
10852;BME280;5479;52.046;6.314;2023-05-23T07:57:09;102026.56;;;13.08;100.00
10852;BME280;5479;52.046;6.314;2023-05-23T07:59:38;102014.56;;;13.51;100.00
10852;BME280;5479;52.046;6.314;2023-05-23T08:02:12;102013.69;;;13.68;100.00
10852;BME280;5479;52.046;6.314;2023-05-23T08:04:40;102019.63;;;13.73;100.00
10852;BME280;5479;52.046;6.314;2023-05-23T08:07:08;102019.47;;;14.09;100.00
10852;BME280;5479;52.046;6.314;2023-05-23T08:09:38;102015.06;;;14.40;100.00
10852;BME280;5479;52.046;6.314;2023-05-23T08:12:08;102015.75;;;14.60;100.00
10852;BME280;5479;52.046;6.314;2023-05-23T08:14:37;102010.56;;;14.72;100.00
10852;BME280;5479;52.046;6.314;2023-05-23T08:17:09;102026.75;;;14.54;100.00
10852;BME280;5479;52.046;6.314;2023-05-23T08:19:41;102023.06;;;14.56;100.00
10852;BME280;5479;52.046;6.314;2023-05-23T08:22:09;102033.81;;;14.55;100.00
10852;BME280;5479;52.046;6.314;2023-05-23T08:24:37;102031.31;;;14.52;100.00
10852;BME280;5479;52.046;6.314;2023-05-23T08:27:07;102032.41;;;14.32;100.00
10852;BME280;5479;52.046;6.314;2023-05-23T08:29:35;102039.44;;;14.17;100.00
10852;BME280;5479;52.046;6.314;2023-05-23T08:32:04;102039.69;;;13.80;100.00
10852;BME280;5479;52.046;6.314;2023-05-23T08:34:36;102044.19;;;13.95;100.00
10852;BME280;5479;52.046;6.314;2023-05-23T08:37:06;102052.03;;;13.81;100.00
10852;BME280;5479;52.046;6.314;2023-05-23T08:39:34;102052.44;;;13.90;100.00
10852;BME280;5479;52.046;6.314;2023-05-23T08:42:04;102053.22;;;14.72;100.00
10852;BME280;5479;52.046;6.314;2023-05-23T08:44:38;102042.41;;;15.50;100.00
10852;BME280;5479;52.046;6.314;2023-05-23T08:47:07;102047.34;;;16.28;100.00
10852;BME280;5479;52.046;6.314;2023-05-23T08:49:38;102058.66;;;17.01;99.67
10852;BME280;5479;52.046;6.314;2023-05-23T08:52:11;102045.97;;;16.91;98.77
10852;BME280;5479;52.046;6.314;2023-05-23T08:54:41;102049.19;;;16.69;100.00
10852;BME280;5479;52.046;6.314;2023-05-23T08:57:10;102054.56;;;16.96;100.00
10852;BME280;5479;52.046;6.314;2023-05-23T08:59:46;102059.47;;;16.20;100.00
10852;BME280;5479;52.046;6.314;2023-05-23T09:02:19;102066.00;;;15.42;100.00
10852;BME280;5479;52.046;6.314;2023-05-23T09:04:47;102072.31;;;14.96;100.00
10852;BME280;5479;52.046;6.314;2023-05-23T09:07:17;102083.34;;;14.90;100.00
10852;BME280;5479;52.046;6.314;2023-05-23T09:09:46;102078.84;;;14.43;100.00
10852;BME280;5479;52.046;6.314;2023-05-23T09:12:19;102079.69;;;14.28;100.00
10852;BME280;5479;52.046;6.314;2023-05-23T09:14:51;102093.00;;;14.28;100.00
10852;BME280;5479;52.046;6.314;2023-05-23T09:17:21;102080.31;;;14.33;100.00
10852;BME280;5479;52.046;6.314;2023-05-23T09:19:49;102086.41;;;14.82;100.00
10852;BME280;5479;52.046;6.314;2023-05-23T09:22:23;102086.78;;;14.92;100.00
10852;BME280;5479;52.046;6.314;2023-05-23T09:24:59;102077.34;;;15.61;100.00
10852;BME280;5479;52.046;6.314;2023-05-23T09:27:28;102086.16;;;15.92;100.00
10852;BME280;5479;52.046;6.314;2023-05-23T09:29:56;102086.88;;;15.51;100.00
10852;BME280;5479;52.046;6.314;2023-05-23T09:32:26;102094.00;;;15.05;100.00
10852;BME280;5479;52.046;6.314;2023-05-23T09:34:57;102097.69;;;14.56;100.00
10852;BME280;5479;52.046;6.314;2023-05-23T09:37:34;102089.00;;;14.52;100.00
10852;BME280;5479;52.046;6.314;2023-05-23T09:40:08;102095.72;;;14.44;100.00
10852;BME280;5479;52.046;6.314;2023-05-23T09:42:43;102108.94;;;14.45;100.00
10852;BME280;5479;52.046;6.314;2023-05-23T09:45:12;102102.63;;;14.79;100.00
10852;BME280;5479;52.046;6.314;2023-05-23T09:47:50;102113.22;;;15.26;100.00
10852;BME280;5479;52.046;6.314;2023-05-23T09:50:20;102108.81;;;16.14;100.00
10852;BME280;5479;52.046;6.314;2023-05-23T09:52:51;102103.44;;;16.85;82.68
10852;BME280;5479;52.046;6.314;2023-05-23T09:55:20;102105.47;;;16.53;77.24
10852;BME280;5479;52.046;6.314;2023-05-23T09:57:55;102100.78;;;16.57;78.20
10852;BME280;5479;52.046;6.314;2023-05-23T10:00:27;102106.97;;;16.43;78.09
10852;BME280;5479;52.046;6.314;2023-05-23T10:03:08;102102.44;;;16.86;76.48
10852;BME280;5479;52.046;6.314;2023-05-23T10:05:45;102098.78;;;17.55;72.54
10852;BME280;5479;52.046;6.314;2023-05-23T10:08:41;102102.25;;;17.94;66.41
10852;BME280;5479;52.046;6.314;2023-05-23T10:14:17;102094.41;;;17.39;66.77
10852;BME280;5479;52.046;6.314;2023-05-23T10:17:00;102096.91;;;17.16;68.23
10852;BME280;5479;52.046;6.314;2023-05-23T10:19:35;102086.19;;;17.16;70.01
10852;BME280;5479;52.046;6.314;2023-05-23T10:22:09;102089.91;;;17.79;70.59
10852;BME280;5479;52.046;6.314;2023-05-23T10:24:47;102091.22;;;18.73;61.02
10852;BME280;5479;52.046;6.314;2023-05-23T10:27:16;102098.59;;;17.95;61.01
10852;BME280;5479;52.046;6.314;2023-05-23T10:29:47;102088.75;;;17.44;64.55
10852;BME280;5479;52.046;6.314;2023-05-23T10:32:17;102095.28;;;18.30;60.95
10852;BME280;5479;52.046;6.314;2023-05-23T10:34:55;102096.84;;;18.45;57.02
10852;BME280;5479;52.046;6.314;2023-05-23T10:37:32;102094.22;;;19.05;56.51
10852;BME280;5479;52.046;6.314;2023-05-23T10:40:10;102103.94;;;18.95;55.04
10852;BME280;5479;52.046;6.314;2023-05-23T10:42:46;102099.13;;;18.51;56.82
10852;BME280;5479;52.046;6.314;2023-05-23T10:45:17;102082.41;;;18.35;57.79
10852;BME280;5479;52.046;6.314;2023-05-23T10:47:47;102089.13;;;18.89;55.90
10852;BME280;5479;52.046;6.314;2023-05-23T10:50:29;102087.44;;;18.27;59.06
10852;BME280;5479;52.046;6.314;2023-05-23T10:53:01;102085.81;;;18.37;58.56
10852;BME280;5479;52.046;6.314;2023-05-23T10:55:32;102098.25;;;17.62;58.60
10852;BME280;5479;52.046;6.314;2023-05-23T10:58:13;102093.13;;;18.35;59.55
10852;BME280;5479;52.046;6.314;2023-05-23T11:00:54;102085.72;;;18.26;58.64
10852;BME280;5479;52.046;6.314;2023-05-23T11:03:34;102103.84;;;17.84;57.58
10852;BME280;5479;52.046;6.314;2023-05-23T11:06:03;102109.22;;;18.09;57.10
10852;BME280;5479;52.046;6.314;2023-05-23T11:08:36;102093.44;;;18.18;54.65
10852;BME280;5479;52.046;6.314;2023-05-23T11:11:16;102093.88;;;18.37;55.69
10852;BME280;5479;52.046;6.314;2023-05-23T11:13:58;102092.47;;;18.56;54.25
10852;BME280;5479;52.046;6.314;2023-05-23T11:16:29;102108.16;;;17.99;55.97
10852;BME280;5479;52.046;6.314;2023-05-23T11:19:21;102090.44;;;17.59;59.76
10852;BME280;5479;52.046;6.314;2023-05-23T11:21:58;102112.47;;;17.23;59.67
10852;BME280;5479;52.046;6.314;2023-05-23T11:24:48;102098.66;;;17.56;56.29
10852;BME280;5479;52.046;6.314;2023-05-23T11:27:26;102101.72;;;18.15;56.69
10852;BME280;5479;52.046;6.314;2023-05-23T11:30:00;102107.91;;;18.28;55.03
10852;BME280;5479;52.046;6.314;2023-05-23T11:32:31;102098.69;;;18.44;54.18
10852;BME280;5479;52.046;6.314;2023-05-23T11:35:05;102105.75;;;18.33;55.08
10852;BME280;5479;52.046;6.314;2023-05-23T11:37:33;102100.75;;;18.16;55.00
10852;BME280;5479;52.046;6.314;2023-05-23T11:40:27;102112.00;;;17.70;57.38
10852;BME280;5479;52.046;6.314;2023-05-23T11:42:57;102110.63;;;17.50;57.45
10852;BME280;5479;52.046;6.314;2023-05-23T11:45:50;102112.66;;;18.12;54.71
10852;BME280;5479;52.046;6.314;2023-05-23T11:48:18;102118.63;;;17.90;55.50
10852;BME280;5479;52.046;6.314;2023-05-23T11:50:50;102110.81;;;18.12;53.95
10852;BME280;5479;52.046;6.314;2023-05-23T11:53:25;102103.09;;;18.33;54.19
10852;BME280;5479;52.046;6.314;2023-05-23T11:56:01;102103.22;;;18.06;55.80
10852;BME280;5479;52.046;6.314;2023-05-23T11:58:35;102113.94;;;17.93;56.33
10852;BME280;5479;52.046;6.314;2023-05-23T12:01:08;102112.78;;;17.97;55.35
10852;BME280;5479;52.046;6.314;2023-05-23T12:03:44;102109.00;;;18.25;51.78
10852;BME280;5479;52.046;6.314;2023-05-23T12:06:14;102107.69;;;18.43;51.40
10852;BME280;5479;52.046;6.314;2023-05-23T12:08:46;102101.56;;;18.54;51.01
10852;BME280;5479;52.046;6.314;2023-05-23T12:11:15;102110.09;;;18.84;52.99
10852;BME280;5479;52.046;6.314;2023-05-23T12:13:45;102114.03;;;18.55;53.95
10852;BME280;5479;52.046;6.314;2023-05-23T12:16:17;102115.25;;;18.51;53.46
10852;BME280;5479;52.046;6.314;2023-05-23T12:18:47;102099.75;;;18.42;54.51
10852;BME280;5479;52.046;6.314;2023-05-23T12:21:18;102116.50;;;18.33;53.08
10852;BME280;5479;52.046;6.314;2023-05-23T12:23:49;102128.47;;;17.64;54.06
10852;BME280;5479;52.046;6.314;2023-05-23T12:26:17;102116.06;;;17.88;54.06
10852;BME280;5479;52.046;6.314;2023-05-23T12:28:53;102108.38;;;17.84;53.25
10852;BME280;5479;52.046;6.314;2023-05-23T12:31:24;102108.97;;;17.62;54.01
10852;BME280;5479;52.046;6.314;2023-05-23T12:33:59;102121.97;;;17.68;54.66
10852;BME280;5479;52.046;6.314;2023-05-23T12:36:28;102119.09;;;17.96;55.33
10852;BME280;5479;52.046;6.314;2023-05-23T12:39:01;102120.00;;;18.46;53.07
10852;BME280;5479;52.046;6.314;2023-05-23T12:41:32;102122.50;;;18.49;49.80
10852;BME280;5479;52.046;6.314;2023-05-23T12:44:04;102119.31;;;18.56;47.63
10852;BME280;5479;52.046;6.314;2023-05-23T12:46:32;102128.78;;;18.86;47.38
10852;BME280;5479;52.046;6.314;2023-05-23T12:49:00;102130.69;;;18.35;49.63
10852;BME280;5479;52.046;6.314;2023-05-23T12:51:29;102123.59;;;18.34;50.09
10852;BME280;5479;52.046;6.314;2023-05-23T12:54:00;102123.38;;;18.49;49.72
10852;BME280;5479;52.046;6.314;2023-05-23T12:56:29;102128.91;;;18.46;47.08
10852;BME280;5479;52.046;6.314;2023-05-23T12:58:59;102136.03;;;18.09;48.08
10852;BME280;5479;52.046;6.314;2023-05-23T13:01:30;102131.72;;;18.20;47.28
10852;BME280;5479;52.046;6.314;2023-05-23T13:04:01;102140.97;;;18.03;49.11
10852;BME280;5479;52.046;6.314;2023-05-23T13:06:32;102131.31;;;18.26;50.65
10852;BME280;5479;52.046;6.314;2023-05-23T13:09:03;102127.44;;;18.42;49.95
10852;BME280;5479;52.046;6.314;2023-05-23T13:11:40;102129.56;;;18.62;51.70
10852;BME280;5479;52.046;6.314;2023-05-23T13:14:15;102127.44;;;18.42;51.06
10852;BME280;5479;52.046;6.314;2023-05-23T13:16:50;102132.16;;;18.51;50.48
10852;BME280;5479;52.046;6.314;2023-05-23T13:19:18;102134.94;;;18.25;50.74
10852;BME280;5479;52.046;6.314;2023-05-23T13:21:46;102125.53;;;18.32;50.65